Time;durP1;ratioP1;P1;durP2;ratioP2;P2;SDS_P1;SDS_P2;PMS_P1;PMS_P2;Temp;Humidity;BMP_temperature;BMP_pressure;BME280_temperature;BME280_humidity;BME280_pressure;Samples;Min_cycle;Max_cycle;Signal;HPM_P1;HPM_P2
2021/11/18 00:01:50;;;;;;;120.13;66.45;;;;;;;;;;5053696;28;20025;-52
2021/11/18 00:04:16;;;;;;;113.20;61.42;;;;;;;;;;5053833;28;20461;-51
2021/11/18 00:06:49;;;;;;;130.90;70.97;;;;;;;;;;5053650;28;20488;-52
2021/11/18 00:09:19;;;;;;;126.97;68.22;;;;;;;;;;5053542;28;20048;-52
2021/11/18 00:11:46;;;;;;;127.28;69.70;;;;;;;;;;5053498;28;20163;-51
2021/11/18 00:14:12;;;;;;;124.85;66.50;;;;;;;;;;5053365;28;20028;-51
2021/11/18 00:16:39;;;;;;;124.40;67.82;;;;;;;;;;5053408;28;20451;-51
2021/11/18 00:19:06;;;;;;;120.85;67.22;;;;;;;;;;5053485;28;20025;-51
2021/11/18 00:21:36;;;;;;;123.43;65.45;;;;;;;;;;5053270;28;20029;-51
2021/11/18 00:24:02;;;;;;;130.43;70.65;;;;;;;;;;5053388;28;20039;-51
2021/11/18 00:26:30;;;;;;;124.45;66.53;;;;;;;;;;5053228;28;20025;-51
2021/11/18 00:28:57;;;;;;;125.60;65.13;;;;;;;;;;5053299;28;20101;-52
2021/11/18 00:31:24;;;;;;;111.93;59.97;;;;;;;;;;5053394;28;20017;-52
2021/11/18 00:33:50;;;;;;;127.25;65.55;;;;;;;;;;5053548;28;20029;-51
2021/11/18 00:36:19;;;;;;;111.15;58.08;;;;;;;;;;5053123;28;20041;-51
2021/11/18 00:38:45;;;;;;;107.57;59.22;;;;;;;;;;5053339;28;20493;-51
2021/11/18 00:41:14;;;;;;;119.90;65.10;;;;;;;;;;5053273;28;20021;-52
2021/11/18 00:43:41;;;;;;;118.15;64.22;;;;;;;;;;5053369;28;20396;-51
2021/11/18 00:46:07;;;;;;;115.65;61.35;;;;;;;;;;5053201;28;20064;-51
2021/11/18 00:48:34;;;;;;;119.28;62.60;;;;;;;;;;5052922;28;20017;-52
2021/11/18 00:51:04;;;;;;;117.53;59.95;;;;;;;;;;5052984;28;20118;-51
2021/11/18 00:53:30;;;;;;;110.85;57.80;;;;;;;;;;5053230;28;20493;-51
2021/11/18 00:55:57;;;;;;;108.50;57.47;;;;;;;;;;5052700;28;20033;-52
2021/11/18 00:58:23;;;;;;;112.15;57.25;;;;;;;;;;5052954;28;20021;-52
2021/11/18 01:00:50;;;;;;;103.85;56.63;;;;;;;;;;5052960;28;20495;-52
2021/11/18 01:03:17;;;;;;;118.25;59.97;;;;;;;;;;5051327;28;20051;-52
2021/11/18 01:05:44;;;;;;;102.25;53.25;;;;;;;;;;5053076;28;20465;-51
2021/11/18 01:08:11;;;;;;;107.78;57.65;;;;;;;;;;5052802;28;20076;-51
2021/11/18 01:10:39;;;;;;;93.55;52.47;;;;;;;;;;5052877;28;20416;-51
2021/11/18 01:13:06;;;;;;;88.47;47.60;;;;;;;;;;5053049;28;20377;-51
2021/11/18 01:15:36;;;;;;;80.10;46.55;;;;;;;;;;5052870;28;20021;-51
2021/11/18 01:18:03;;;;;;;86.55;47.33;;;;;;;;;;5052854;28;20111;-51
2021/11/18 01:20:30;;;;;;;83.28;47.05;;;;;;;;;;5052731;28;20029;-52
2021/11/18 01:22:57;;;;;;;89.13;49.15;;;;;;;;;;5052877;28;20043;-52
2021/11/18 01:25:24;;;;;;;83.78;48.13;;;;;;;;;;5052672;28;20466;-52
2021/11/18 01:27:50;;;;;;;76.07;45.13;;;;;;;;;;5052609;28;20511;-52
2021/11/18 01:30:20;;;;;;;80.43;46.65;;;;;;;;;;5052264;28;20036;-52
2021/11/18 01:32:49;;;;;;;74.60;45.00;;;;;;;;;;5052771;28;20036;-51
2021/11/18 01:35:20;;;;;;;70.07;44.05;;;;;;;;;;5052706;28;20017;-51
2021/11/18 01:37:46;;;;;;;72.13;42.97;;;;;;;;;;5052592;28;20044;-52
2021/11/18 01:40:14;;;;;;;73.45;45.60;;;;;;;;;;5052819;28;20028;-52
2021/11/18 01:42:40;;;;;;;75.78;46.97;;;;;;;;;;5052500;28;20031;-51
2021/11/18 01:45:07;;;;;;;75.85;44.50;;;;;;;;;;5052603;28;20476;-51
2021/11/18 01:47:34;;;;;;;76.90;44.72;;;;;;;;;;5052721;28;20045;-52
2021/11/18 01:50:00;;;;;;;75.72;43.40;;;;;;;;;;5052661;28;20024;-51
2021/11/18 01:52:27;;;;;;;75.25;42.70;;;;;;;;;;5052606;28;20041;-52
2021/11/18 01:54:53;;;;;;;78.45;48.08;;;;;;;;;;5052505;28;20033;-51
2021/11/18 01:57:27;;;;;;;77.72;46.67;;;;;;;;;;5052490;28;20449;-52
2021/11/18 01:59:57;;;;;;;82.97;48.33;;;;;;;;;;5052452;28;20021;-51
2021/11/18 02:02:25;;;;;;;80.85;47.88;;;;;;;;;;5055376;28;20029;-52
2021/11/18 02:04:56;;;;;;;82.93;50.42;;;;;;;;;;5056112;28;20373;-51
2021/11/18 02:07:23;;;;;;;92.67;51.93;;;;;;;;;;5055935;28;20146;-51
2021/11/18 02:09:50;;;;;;;92.35;53.33;;;;;;;;;;5056220;28;20024;-51
2021/11/18 02:12:21;;;;;;;89.00;53.00;;;;;;;;;;5055920;28;20062;-51
2021/11/18 02:14:47;;;;;;;88.68;52.40;;;;;;;;;;5056209;28;20578;-52
2021/11/18 02:17:15;;;;;;;85.43;52.63;;;;;;;;;;5055673;28;20045;-51
2021/11/18 02:19:46;;;;;;;91.82;52.90;;;;;;;;;;5055581;28;20096;-51
2021/11/18 02:22:13;;;;;;;62.25;38.80;;;;;;;;;;5055623;28;20400;-51
2021/11/18 02:24:42;;;;;;;83.15;51.42;;;;;;;;;;5055593;28;20029;-51
2021/11/18 02:27:12;;;;;;;79.80;50.42;;;;;;;;;;5055681;28;20071;-51
2021/11/18 02:29:39;;;;;;;86.95;51.63;;;;;;;;;;5055562;28;20515;-51
2021/11/18 02:32:09;;;;;;;83.57;52.00;;;;;;;;;;5055590;28;20368;-51
2021/11/18 02:34:53;;;;;;;83.45;48.83;;;;;;;;;;5055389;28;20120;-51
2021/11/18 02:37:22;;;;;;;81.43;48.28;;;;;;;;;;5054038;28;20400;-51
2021/11/18 02:39:48;;;;;;;87.65;49.50;;;;;;;;;;5055507;28;20036;-51
2021/11/18 02:42:15;;;;;;;77.95;47.92;;;;;;;;;;5055353;28;20029;-51
2021/11/18 02:44:41;;;;;;;76.75;46.75;;;;;;;;;;5055242;28;20024;-51
2021/11/18 02:47:14;;;;;;;76.53;46.17;;;;;;;;;;5055324;28;20325;-52
2021/11/18 02:49:42;;;;;;;75.47;45.88;;;;;;;;;;5054940;28;20021;-52
2021/11/18 02:52:10;;;;;;;74.60;46.17;;;;;;;;;;5055043;28;20080;-51
2021/11/18 02:54:38;;;;;;;77.15;46.70;;;;;;;;;;5055046;28;20481;-51
2021/11/18 02:57:04;;;;;;;78.80;47.60;;;;;;;;;;5054805;28;20064;-52
2021/11/18 02:59:31;;;;;;;73.82;44.58;;;;;;;;;;5055184;28;20021;-51
2021/11/18 03:01:57;;;;;;;72.40;45.80;;;;;;;;;;5055146;28;20032;-51
2021/11/18 03:04:23;;;;;;;78.05;46.65;;;;;;;;;;5054908;28;20028;-52
2021/11/18 03:06:49;;;;;;;83.72;48.85;;;;;;;;;;5055072;28;20039;-52
2021/11/18 03:09:15;;;;;;;79.75;46.60;;;;;;;;;;5055082;28;20056;-51
2021/11/18 03:11:41;;;;;;;76.05;46.17;;;;;;;;;;5054935;28;20029;-51
2021/11/18 03:14:08;;;;;;;80.75;46.78;;;;;;;;;;5054708;28;20025;-52
2021/11/18 03:16:34;;;;;;;76.82;45.53;;;;;;;;;;5054557;28;20039;-52
2021/11/18 03:19:00;;;;;;;78.30;45.97;;;;;;;;;;5054589;28;20392;-51
2021/11/18 03:21:28;;;;;;;74.85;44.22;;;;;;;;;;5054617;28;20134;-51
2021/11/18 03:23:55;;;;;;;74.72;42.80;;;;;;;;;;5054550;28;20075;-51
2021/11/18 03:26:23;;;;;;;67.13;39.30;;;;;;;;;;5054415;28;20021;-52
2021/11/18 03:28:49;;;;;;;66.28;39.72;;;;;;;;;;5054365;28;20075;-52
2021/11/18 03:31:16;;;;;;;67.13;38.00;;;;;;;;;;5054375;28;20029;-51
2021/11/18 03:33:50;;;;;;;67.40;38.45;;;;;;;;;;5054294;28;20029;-52
2021/11/18 03:36:17;;;;;;;65.72;37.40;;;;;;;;;;5054448;28;20107;-52
2021/11/18 03:38:43;;;;;;;67.55;38.80;;;;;;;;;;5054353;28;20033;-52
2021/11/18 03:41:10;;;;;;;64.00;37.30;;;;;;;;;;5054134;28;20029;-52
2021/11/18 03:43:38;;;;;;;65.00;38.58;;;;;;;;;;5054216;28;20025;-52
2021/11/18 03:46:07;;;;;;;68.93;38.83;;;;;;;;;;5054115;28;20454;-52
2021/11/18 03:48:34;;;;;;;66.18;37.80;;;;;;;;;;5054089;28;20453;-53
2021/11/18 03:51:02;;;;;;;74.90;39.60;;;;;;;;;;5053770;28;20131;-52
2021/11/18 03:53:28;;;;;;;69.22;40.95;;;;;;;;;;5054036;28;20040;-52
2021/11/18 03:55:55;;;;;;;72.28;40.28;;;;;;;;;;5053838;28;20547;-52
2021/11/18 03:58:21;;;;;;;66.18;38.30;;;;;;;;;;5053884;28;20385;-52
2021/11/18 04:00:47;;;;;;;67.15;38.80;;;;;;;;;;5053819;28;20029;-52
2021/11/18 04:03:14;;;;;;;68.85;39.22;;;;;;;;;;5053760;28;20021;-52
2021/11/18 04:05:41;;;;;;;77.72;39.50;;;;;;;;;;5053940;28;20028;-52
2021/11/18 04:08:11;;;;;;;76.80;40.88;;;;;;;;;;5054002;28;20021;-52
2021/11/18 04:10:38;;;;;;;70.00;41.15;;;;;;;;;;5053792;28;20090;-52
2021/11/18 04:13:05;;;;;;;71.45;39.90;;;;;;;;;;5052180;28;20389;-52
2021/11/18 04:15:31;;;;;;;77.10;43.58;;;;;;;;;;5053837;28;20033;-52
2021/11/18 04:17:58;;;;;;;74.88;42.10;;;;;;;;;;5053581;28;20033;-52
2021/11/18 04:20:24;;;;;;;69.22;39.92;;;;;;;;;;5053415;28;20021;-51
2021/11/18 04:22:51;;;;;;;76.90;40.97;;;;;;;;;;5053692;28;20044;-51
2021/11/18 04:25:19;;;;;;;75.90;40.92;;;;;;;;;;5053055;28;20377;-51
2021/11/18 04:27:45;;;;;;;68.28;39.90;;;;;;;;;;5053373;28;20028;-52
2021/11/18 04:30:15;;;;;;;71.53;41.88;;;;;;;;;;5053411;28;20025;-51
2021/11/18 04:32:42;;;;;;;75.82;44.38;;;;;;;;;;5053502;28;20029;-52
2021/11/18 04:35:09;;;;;;;85.80;45.83;;;;;;;;;;5053359;28;20032;-51
2021/11/18 04:37:35;;;;;;;93.45;47.10;;;;;;;;;;5053125;28;20466;-51
2021/11/18 04:40:01;;;;;;;83.57;43.92;;;;;;;;;;5053200;28;20051;-51
2021/11/18 04:42:27;;;;;;;91.93;49.97;;;;;;;;;;5053086;28;20032;-52
2021/11/18 04:44:53;;;;;;;80.38;44.75;;;;;;;;;;5052971;28;20025;-52
2021/11/18 04:47:20;;;;;;;76.85;41.53;;;;;;;;;;5052902;28;20028;-52
2021/11/18 04:49:46;;;;;;;81.43;47.70;;;;;;;;;;5053010;28;20018;-51
2021/11/18 04:52:14;;;;;;;76.80;41.30;;;;;;;;;;5052771;28;20053;-51
2021/11/18 04:54:41;;;;;;;89.15;45.63;;;;;;;;;;5052911;28;20480;-52
2021/11/18 04:57:10;;;;;;;84.28;45.58;;;;;;;;;;5052783;28;20554;-51
2021/11/18 04:59:36;;;;;;;84.65;47.70;;;;;;;;;;5052889;28;20481;-51
2021/11/18 05:02:03;;;;;;;80.18;44.72;;;;;;;;;;5052752;28;20040;-51
2021/11/18 05:04:32;;;;;;;76.88;42.75;;;;;;;;;;5052879;28;20032;-52
2021/11/18 05:06:58;;;;;;;75.63;41.40;;;;;;;;;;5052845;28;20035;-52
2021/11/18 05:09:24;;;;;;;79.57;40.65;;;;;;;;;;5052875;28;20044;-51
2021/11/18 05:11:51;;;;;;;75.60;43.05;;;;;;;;;;5052854;28;20052;-53
2021/11/18 05:14:22;;;;;;;76.55;43.53;;;;;;;;;;5052726;28;20017;-53
2021/11/18 05:16:48;;;;;;;105.18;53.20;;;;;;;;;;5052971;28;20862;-52
2021/11/18 05:19:14;;;;;;;65.65;37.30;;;;;;;;;;5052753;28;20512;-53
2021/11/18 05:21:41;;;;;;;76.10;40.47;;;;;;;;;;5052803;28;20037;-53
2021/11/18 05:24:07;;;;;;;82.68;43.45;;;;;;;;;;5052885;28;20035;-52
2021/11/18 05:26:36;;;;;;;73.00;40.50;;;;;;;;;;5052774;28;20017;-48
2021/11/18 05:29:03;;;;;;;67.03;37.58;;;;;;;;;;5052661;28;20115;-48
2021/11/18 05:31:30;;;;;;;76.07;40.75;;;;;;;;;;5053095;28;20017;-52
2021/11/18 05:33:57;;;;;;;72.43;40.55;;;;;;;;;;5053148;28;20049;-53
2021/11/18 05:36:25;;;;;;;74.55;43.00;;;;;;;;;;5054101;28;20056;-53
2021/11/18 05:38:52;;;;;;;79.70;41.28;;;;;;;;;;5056617;28;20040;-51
2021/11/18 05:41:18;;;;;;;69.45;39.35;;;;;;;;;;5056637;28;20017;-52
2021/11/18 05:43:44;;;;;;;60.30;35.97;;;;;;;;;;5056383;28;20035;-52
2021/11/18 05:46:12;;;;;;;60.63;37.05;;;;;;;;;;5056909;28;20096;-53
2021/11/18 05:48:38;;;;;;;68.35;37.63;;;;;;;;;;5056527;28;20032;-53
2021/11/18 05:51:05;;;;;;;64.47;35.45;;;;;;;;;;5056167;28;20080;-53
2021/11/18 05:53:36;;;;;;;61.63;33.47;;;;;;;;;;5056017;28;20033;-52
2021/11/18 05:56:05;;;;;;;65.37;34.53;;;;;;;;;;5056072;28;20477;-52
2021/11/18 05:58:33;;;;;;;57.47;32.85;;;;;;;;;;5055854;28;20642;-52
2021/11/18 06:01:00;;;;;;;61.30;34.95;;;;;;;;;;5055864;28;20401;-52
2021/11/18 06:03:26;;;;;;;63.55;34.97;;;;;;;;;;5056068;28;20032;-53
2021/11/18 06:05:52;;;;;;;56.97;32.72;;;;;;;;;;5056059;28;20385;-54
2021/11/18 06:08:23;;;;;;;57.25;30.58;;;;;;;;;;5055950;28;20029;-52
2021/11/18 06:10:52;;;;;;;57.90;30.58;;;;;;;;;;5055754;28;20025;-53
2021/11/18 06:13:19;;;;;;;54.75;31.55;;;;;;;;;;5055592;28;20029;-52
2021/11/18 06:15:46;;;;;;;55.47;30.00;;;;;;;;;;5055641;28;20017;-52
2021/11/18 06:18:13;;;;;;;60.85;32.42;;;;;;;;;;5055803;28;20029;-52
2021/11/18 06:20:40;;;;;;;59.30;30.88;;;;;;;;;;5055772;28;20098;-52
2021/11/18 06:23:06;;;;;;;58.30;30.25;;;;;;;;;;5055610;28;20078;-52
2021/11/18 06:25:33;;;;;;;53.05;29.65;;;;;;;;;;5055651;28;20096;-52
2021/11/18 06:27:59;;;;;;;48.95;27.55;;;;;;;;;;5055402;28;20028;-52
2021/11/18 06:30:30;;;;;;;58.67;28.83;;;;;;;;;;5055463;28;20025;-52
2021/11/18 06:32:59;;;;;;;49.10;26.13;;;;;;;;;;5055624;28;20028;-52
2021/11/18 06:35:25;;;;;;;47.03;26.77;;;;;;;;;;5056097;28;20036;-52
2021/11/18 06:37:52;;;;;;;46.05;26.35;;;;;;;;;;5055221;28;20086;-52
2021/11/18 06:40:21;;;;;;;43.90;25.60;;;;;;;;;;5055397;28;20018;-52
2021/11/18 06:42:48;;;;;;;48.00;25.45;;;;;;;;;;5055433;28;20021;-53
2021/11/18 06:45:15;;;;;;;44.13;25.48;;;;;;;;;;5055387;28;20098;-52
2021/11/18 06:47:41;;;;;;;41.67;23.33;;;;;;;;;;5055007;28;20436;-52
2021/11/18 06:50:13;;;;;;;47.20;26.08;;;;;;;;;;5055350;28;20057;-52
2021/11/18 06:52:39;;;;;;;44.38;25.35;;;;;;;;;;5054990;28;20117;-53
2021/11/18 06:55:07;;;;;;;45.25;26.33;;;;;;;;;;5055118;28;20021;-52
2021/11/18 06:57:38;;;;;;;47.63;27.08;;;;;;;;;;5055109;28;20037;-52
2021/11/18 07:00:09;;;;;;;40.33;25.08;;;;;;;;;;5054985;28;20027;-52
2021/11/18 07:02:35;;;;;;;42.53;23.05;;;;;;;;;;5055282;28;20036;-52
2021/11/18 07:05:01;;;;;;;45.22;23.42;;;;;;;;;;5055312;28;20032;-52
2021/11/18 07:07:27;;;;;;;36.17;20.60;;;;;;;;;;5054804;28;20025;-52
2021/11/18 07:10:01;;;;;;;48.60;27.42;;;;;;;;;;5055017;28;20380;-52
2021/11/18 07:12:27;;;;;;;40.08;22.13;;;;;;;;;;5055130;28;20029;-53
2021/11/18 07:14:53;;;;;;;39.15;23.13;;;;;;;;;;5054834;28;20029;-53
2021/11/18 07:17:20;;;;;;;35.22;20.67;;;;;;;;;;5054611;28;20021;-52
2021/11/18 07:19:46;;;;;;;33.75;19.98;;;;;;;;;;5054580;28;20523;-52
2021/11/18 07:22:12;;;;;;;37.60;21.42;;;;;;;;;;5054983;28;20029;-52
2021/11/18 07:24:41;;;;;;;36.35;19.92;;;;;;;;;;5054747;28;20032;-51
2021/11/18 07:27:07;;;;;;;35.55;17.90;;;;;;;;;;5054604;28;20051;-52
2021/11/18 07:29:33;;;;;;;30.63;17.73;;;;;;;;;;5054455;28;20025;-52
2021/11/18 07:32:00;;;;;;;35.67;17.75;;;;;;;;;;5054680;28;20029;-52
2021/11/18 07:34:26;;;;;;;35.13;19.95;;;;;;;;;;5054768;28;20025;-51
2021/11/18 07:36:52;;;;;;;35.42;18.30;;;;;;;;;;5054208;28;20477;-52
2021/11/18 07:39:19;;;;;;;58.22;29.90;;;;;;;;;;5054332;28;20032;-52
2021/11/18 07:41:46;;;;;;;53.33;27.75;;;;;;;;;;5054460;28;20036;-52
2021/11/18 07:44:12;;;;;;;44.33;24.05;;;;;;;;;;5054263;28;20024;-52
2021/11/18 07:46:39;;;;;;;61.22;32.55;;;;;;;;;;5054284;28;20380;-53
2021/11/18 07:49:05;;;;;;;51.78;29.73;;;;;;;;;;5054098;28;20032;-52
2021/11/18 07:51:36;;;;;;;43.50;25.33;;;;;;;;;;5053839;28;20501;-52
2021/11/18 07:54:02;;;;;;;47.65;27.65;;;;;;;;;;5053884;28;20590;-52
2021/11/18 07:56:30;;;;;;;53.45;30.58;;;;;;;;;;5053894;28;20025;-52
2021/11/18 07:58:57;;;;;;;65.72;35.67;;;;;;;;;;5053005;28;20040;-52
2021/11/18 08:01:23;;;;;;;51.70;30.50;;;;;;;;;;5054194;28;20100;-52
2021/11/18 08:03:49;;;;;;;72.70;40.95;;;;;;;;;;5053795;28;20021;-53
2021/11/18 08:06:17;;;;;;;75.82;44.25;;;;;;;;;;5053823;28;20063;-52
2021/11/18 08:08:51;;;;;;;88.72;45.72;;;;;;;;;;5053678;28;20056;-51
2021/11/18 08:11:20;;;;;;;67.10;37.65;;;;;;;;;;5053642;28;20044;-52
2021/11/18 08:13:46;;;;;;;79.18;43.78;;;;;;;;;;5052457;28;20027;-53
2021/11/18 08:16:13;;;;;;;65.97;35.92;;;;;;;;;;5053617;28;20139;-52
2021/11/18 08:18:39;;;;;;;89.55;43.70;;;;;;;;;;5053961;28;20029;-53
2021/11/18 08:21:06;;;;;;;68.43;35.15;;;;;;;;;;5053583;28;20504;-52
2021/11/18 08:23:33;;;;;;;78.18;44.30;;;;;;;;;;5053592;28;20060;-53
2021/11/18 08:26:00;;;;;;;87.28;48.83;;;;;;;;;;5053476;28;20155;-52
2021/11/18 08:28:27;;;;;;;81.25;46.33;;;;;;;;;;5053410;28;20032;-53
2021/11/18 08:30:53;;;;;;;73.32;41.35;;;;;;;;;;5053406;28;20044;-53
2021/11/18 08:33:20;;;;;;;74.32;39.55;;;;;;;;;;5053637;28;20083;-52
2021/11/18 08:35:46;;;;;;;51.85;29.52;;;;;;;;;;5053353;28;20075;-52
2021/11/18 08:38:14;;;;;;;69.97;35.75;;;;;;;;;;5053417;28;20037;-52
2021/11/18 08:40:41;;;;;;;60.03;33.33;;;;;;;;;;5053438;28;20017;-52
2021/11/18 08:43:08;;;;;;;55.33;29.55;;;;;;;;;;5053511;28;20028;-52
2021/11/18 08:45:35;;;;;;;69.70;33.25;;;;;;;;;;5053089;28;20017;-52
2021/11/18 08:48:04;;;;;;;68.03;34.30;;;;;;;;;;5053385;28;20033;-52
2021/11/18 08:50:30;;;;;;;74.93;36.22;;;;;;;;;;5053171;28;20025;-52
2021/11/18 08:52:56;;;;;;;65.47;34.25;;;;;;;;;;5053052;28;20102;-52
2021/11/18 08:55:25;;;;;;;60.40;33.80;;;;;;;;;;5053055;28;20021;-52
2021/11/18 08:57:54;;;;;;;49.42;28.70;;;;;;;;;;5053181;28;20384;-52
2021/11/18 09:00:22;;;;;;;52.85;28.90;;;;;;;;;;5053371;28;20098;-52
2021/11/18 09:02:49;;;;;;;49.90;28.25;;;;;;;;;;5053233;28;20500;-52
2021/11/18 09:05:15;;;;;;;42.70;25.10;;;;;;;;;;5052967;28;20469;-52
2021/11/18 09:07:42;;;;;;;42.53;24.70;;;;;;;;;;5052956;28;20492;-52
2021/11/18 09:10:08;;;;;;;43.58;23.80;;;;;;;;;;5054005;28;20465;-52
2021/11/18 09:12:34;;;;;;;44.88;26.13;;;;;;;;;;5057235;28;20044;-52
2021/11/18 09:15:01;;;;;;;54.05;26.20;;;;;;;;;;5056959;28;20025;-52
2021/11/18 09:17:28;;;;;;;44.28;25.73;;;;;;;;;;5057004;28;20481;-51
2021/11/18 09:19:57;;;;;;;42.95;24.83;;;;;;;;;;5057065;28;20040;-52
2021/11/18 09:22:23;;;;;;;41.63;23.05;;;;;;;;;;5057081;28;20027;-52
2021/11/18 09:24:58;;;;;;;46.70;23.30;;;;;;;;;;5056833;28;20078;-52
2021/11/18 09:27:30;;;;;;;48.00;25.48;;;;;;;;;;5055435;28;20416;-52
2021/11/18 09:29:56;;;;;;;49.15;26.42;;;;;;;;;;5056696;28;20096;-52
2021/11/18 09:32:28;;;;;;;41.15;25.27;;;;;;;;;;5056789;28;20028;-52
2021/11/18 09:34:55;;;;;;;42.78;23.75;;;;;;;;;;5056624;28;20477;-52
2021/11/18 09:37:21;;;;;;;43.83;24.42;;;;;;;;;;5056538;28;20381;-52
2021/11/18 09:39:47;;;;;;;36.25;20.05;;;;;;;;;;5056574;28;20122;-52
2021/11/18 09:42:17;;;;;;;38.55;20.55;;;;;;;;;;5056521;28;20546;-52
2021/11/18 09:44:57;;;;;;;35.40;20.02;;;;;;;;;;5056480;28;20407;-51
2021/11/18 09:47:35;;;;;;;36.38;20.05;;;;;;;;;;5056639;28;20016;-52
2021/11/18 09:50:01;;;;;;;41.17;24.25;;;;;;;;;;5056258;28;20086;-52
2021/11/18 09:52:54;;;;;;;34.85;19.10;;;;;;;;;;5056122;28;20459;-52
2021/11/18 09:55:29;;;;;;;50.05;26.65;;;;;;;;;;5056335;28;20021;-52
2021/11/18 09:57:58;;;;;;;61.00;29.75;;;;;;;;;;5056076;28;20388;-52
2021/11/18 10:00:27;;;;;;;46.92;24.55;;;;;;;;;;5056081;28;20067;-51
2021/11/18 10:03:09;;;;;;;45.40;24.08;;;;;;;;;;5056171;28;20516;-53
2021/11/18 10:05:35;;;;;;;38.72;20.75;;;;;;;;;;5056366;28;20389;-52
2021/11/18 10:08:07;;;;;;;38.92;21.55;;;;;;;;;;5056233;28;20385;-52
2021/11/18 10:10:39;;;;;;;38.90;21.45;;;;;;;;;;5056010;28;20036;-52
2021/11/18 10:13:13;;;;;;;41.25;21.80;;;;;;;;;;5056001;28;20480;-52
2021/11/18 10:15:45;;;;;;;38.75;22.00;;;;;;;;;;5054772;28;20079;-51
2021/11/18 10:18:10;;;;;;;;;;;;;;;;;;5056414;28;20037;-52
2021/11/18 10:20:39;;;;;;;56.78;30.23;;;;;;;;;;5056005;28;19970;-52
2021/11/18 10:23:05;;;;;;;44.85;23.02;;;;;;;;;;5055094;28;20017;-51
2021/11/18 10:25:39;;;;;;;33.88;19.60;;;;;;;;;;5055809;28;20062;-51
2021/11/18 10:28:21;;;;;;;36.30;21.25;;;;;;;;;;5055911;28;20021;-52
2021/11/18 10:31:09;;;;;;;42.67;23.15;;;;;;;;;;5055734;28;20021;-52
2021/11/18 10:33:44;;;;;;;24.88;16.35;;;;;;;;;;5055462;28;20029;-52
2021/11/18 10:36:19;;;;;;;23.00;16.08;;;;;;;;;;5055592;28;20036;-52
2021/11/18 10:39:04;;;;;;;29.63;17.67;;;;;;;;;;5055366;28;20033;-51
2021/11/18 10:41:32;;;;;;;22.45;14.52;;;;;;;;;;5055492;28;20029;-52
2021/11/18 10:44:14;;;;;;;23.73;15.40;;;;;;;;;;5055401;28;20029;-52
2021/11/18 10:46:46;;;;;;;23.45;14.88;;;;;;;;;;5055559;28;20029;-52
2021/11/18 10:49:14;;;;;;;22.30;14.07;;;;;;;;;;5055369;28;20021;-52
2021/11/18 10:51:54;;;;;;;53.65;26.27;;;;;;;;;;5055228;28;20048;-52
2021/11/18 10:54:21;;;;;;;54.10;27.35;;;;;;;;;;5055101;28;20033;-52
2021/11/18 10:57:07;;;;;;;46.20;24.17;;;;;;;;;;5055320;28;20021;-52
2021/11/18 10:59:36;;;;;;;41.35;22.27;;;;;;;;;;5054908;28;20056;-52
2021/11/18 11:02:13;;;;;;;35.30;17.92;;;;;;;;;;5054945;28;20025;-52
2021/11/18 11:04:48;;;;;;;29.60;16.33;;;;;;;;;;5055182;28;20070;-52
2021/11/18 11:07:15;;;;;;;33.47;17.80;;;;;;;;;;5054847;28;20036;-52
2021/11/18 11:09:47;;;;;;;28.00;17.38;;;;;;;;;;5054834;28;20045;-51
2021/11/18 11:12:30;;;;;;;28.15;16.98;;;;;;;;;;5054842;28;20053;-52
2021/11/18 11:14:57;;;;;;;34.45;18.13;;;;;;;;;;5054850;28;20025;-52
2021/11/18 11:17:41;;;;;;;38.17;20.90;;;;;;;;;;5054769;28;20025;-51
2021/11/18 11:20:16;;;;;;;28.13;16.65;;;;;;;;;;5054551;28;20040;-52
2021/11/18 11:22:45;;;;;;;30.27;16.38;;;;;;;;;;5054708;28;20029;-52
2021/11/18 11:25:20;;;;;;;27.98;16.48;;;;;;;;;;5054827;28;20025;-51
2021/11/18 11:27:58;;;;;;;26.60;15.23;;;;;;;;;;5054658;28;20523;-52
2021/11/18 11:30:43;;;;;;;38.75;21.45;;;;;;;;;;5054423;28;20021;-52
2021/11/18 11:33:27;;;;;;;29.48;19.25;;;;;;;;;;5053681;28;20032;-52
2021/11/18 11:35:57;;;;;;;43.08;23.35;;;;;;;;;;5054470;28;20492;-52
2021/11/18 11:38:42;;;;;;;31.92;18.35;;;;;;;;;;5054334;28;20048;-52
2021/11/18 11:41:25;;;;;;;35.83;18.67;;;;;;;;;;5054182;28;20035;-52
2021/11/18 11:43:57;;;;;;;26.10;15.55;;;;;;;;;;5054106;28;20082;-52
2021/11/18 11:46:36;;;;;;;25.63;15.43;;;;;;;;;;5052855;28;20420;-51
2021/11/18 11:49:11;;;;;;;34.70;20.55;;;;;;;;;;5054244;28;20024;-51
2021/11/18 11:51:50;;;;;;;27.33;17.67;;;;;;;;;;5053951;28;20060;-52
2021/11/18 11:54:34;;;;;;;25.90;14.65;;;;;;;;;;5053962;28;20036;-52
2021/11/18 11:57:19;;;;;;;36.50;21.83;;;;;;;;;;5052796;28;20031;-52
2021/11/18 11:59:47;;;;;;;47.45;22.85;;;;;;;;;;5054008;28;20649;-52
2021/11/18 12:02:17;;;;;;;39.05;20.88;;;;;;;;;;5053925;28;20127;-51
2021/11/18 12:04:46;;;;;;;40.05;22.73;;;;;;;;;;5053777;28;20021;-52
2021/11/18 12:07:12;;;;;;;38.20;19.52;;;;;;;;;;5053894;28;20428;-51
2021/11/18 12:09:41;;;;;;;26.60;16.83;;;;;;;;;;5053719;28;20096;-52
2021/11/18 12:12:17;;;;;;;38.95;21.90;;;;;;;;;;5053689;28;20029;-51
2021/11/18 12:14:44;;;;;;;38.97;21.50;;;;;;;;;;5053502;28;20063;-51
2021/11/18 12:17:20;;;;;;;31.60;18.10;;;;;;;;;;5053823;28;20045;-51
2021/11/18 12:19:48;;;;;;;35.53;18.73;;;;;;;;;;5053590;28;20041;-51
2021/11/18 12:22:29;;;;;;;39.13;23.67;;;;;;;;;;5053496;28;20116;-51
2021/11/18 12:25:16;;;;;;;34.88;20.77;;;;;;;;;;5053540;28;20043;-51
2021/11/18 12:28:00;;;;;;;29.08;17.08;;;;;;;;;;5053401;28;20021;-51
2021/11/18 12:30:32;;;;;;;25.25;14.43;;;;;;;;;;5053247;28;20017;-51
2021/11/18 12:33:05;;;;;;;23.02;13.07;;;;;;;;;;5053339;28;20056;-50
2021/11/18 12:35:36;;;;;;;21.38;14.25;;;;;;;;;;5053476;28;20024;-50
2021/11/18 12:38:33;;;;;;;27.27;16.52;;;;;;;;;;5053426;28;20037;-50
2021/11/18 12:41:18;;;;;;;32.42;17.40;;;;;;;;;;5011565;28;20038;-50
2021/11/18 12:43:48;;;;;;;29.30;15.68;;;;;;;;;;5011351;28;20034;-50
2021/11/18 12:46:33;;;;;;;24.88;15.38;;;;;;;;;;5010927;28;20133;-52
2021/11/18 12:49:01;;;;;;;27.88;15.07;;;;;;;;;;5011344;28;20044;-50
2021/11/18 12:51:42;;;;;;;34.80;16.00;;;;;;;;;;5011124;28;20067;-52
2021/11/18 12:54:17;;;;;;;24.90;14.95;;;;;;;;;;5011430;28;20040;-51
2021/11/18 12:56:52;;;;;;;36.80;18.85;;;;;;;;;;5011341;28;20018;-51
2021/11/18 12:59:40;;;;;;;44.10;23.05;;;;;;;;;;5011182;28;20050;-52
2021/11/18 13:02:07;;;;;;;32.15;16.48;;;;;;;;;;5011379;28;20029;-51
2021/11/18 13:04:44;;;;;;;52.17;24.60;;;;;;;;;;5011445;28;20034;-51
2021/11/18 13:07:12;;;;;;;31.85;16.00;;;;;;;;;;5011207;28;20026;-51
2021/11/18 13:09:57;;;;;;;28.90;16.48;;;;;;;;;;5011289;28;20034;-52
2021/11/18 13:12:29;;;;;;;39.13;19.08;;;;;;;;;;5011349;28;20028;-51
2021/11/18 13:15:00;;;;;;;34.28;19.90;;;;;;;;;;5011129;28;20085;-52
2021/11/18 13:17:31;;;;;;;46.95;25.65;;;;;;;;;;5031811;28;20033;-51
2021/11/18 13:20:06;;;;;;;26.92;16.50;;;;;;;;;;5053111;28;20045;-52
2021/11/18 13:22:43;;;;;;;33.95;18.27;;;;;;;;;;5052954;28;20064;-52
2021/11/18 13:25:13;;;;;;;42.47;21.70;;;;;;;;;;5052962;28;20025;-52
2021/11/18 13:27:39;;;;;;;28.75;15.93;;;;;;;;;;5052879;28;20021;-51
2021/11/18 13:30:08;;;;;;;37.05;20.90;;;;;;;;;;5052775;28;20032;-51
2021/11/18 13:32:45;;;;;;;21.45;13.93;;;;;;;;;;5052688;28;20028;-51
2021/11/18 13:35:19;;;;;;;30.05;17.67;;;;;;;;;;5052987;28;20461;-52
2021/11/18 13:37:46;;;;;;;34.28;17.05;;;;;;;;;;5052754;28;20159;-51
2021/11/18 13:40:14;;;;;;;40.63;24.02;;;;;;;;;;5052978;28;20086;-51
2021/11/18 13:42:47;;;;;;;38.55;21.35;;;;;;;;;;5052683;28;20560;-53
2021/11/18 13:45:19;;;;;;;30.17;16.42;;;;;;;;;;5052643;28;20025;-51
2021/11/18 13:48:07;;;;;;;35.92;19.58;;;;;;;;;;5052812;28;20022;-51
2021/11/18 13:51:02;;;;;;;38.22;20.23;;;;;;;;;;5052679;28;20033;-51
2021/11/18 13:53:43;;;;;;;31.42;17.13;;;;;;;;;;5010885;28;20096;-51
2021/11/18 13:56:09;;;;;;;27.42;14.85;;;;;;;;;;5010862;28;20053;-51
2021/11/18 13:58:41;;;;;;;39.25;21.05;;;;;;;;;;5014293;28;20050;-51
2021/11/18 14:01:09;;;;;;;34.78;19.67;;;;;;;;;;5014494;28;20026;-52
2021/11/18 14:03:39;;;;;;;29.50;15.50;;;;;;;;;;5014675;28;20084;-51
2021/11/18 14:06:11;;;;;;;31.08;16.17;;;;;;;;;;5014427;28;20497;-51
2021/11/18 14:08:41;;;;;;;38.75;22.58;;;;;;;;;;5014445;28;20035;-51
2021/11/18 14:11:10;;;;;;;35.90;17.80;;;;;;;;;;5014378;28;20041;-51
2021/11/18 14:13:39;;;;;;;28.52;15.55;;;;;;;;;;5014249;28;20221;-51
2021/11/18 14:16:10;;;;;;;28.33;16.88;;;;;;;;;;5014249;28;20034;-51
2021/11/18 14:18:38;;;;;;;36.58;19.55;;;;;;;;;;5014022;28;20033;-51
2021/11/18 14:21:18;;;;;;;33.45;18.45;;;;;;;;;;5014060;28;20108;-51
2021/11/18 14:23:47;;;;;;;42.20;21.70;;;;;;;;;;5014159;28;20034;-51
2021/11/18 14:26:16;;;;;;;39.60;23.13;;;;;;;;;;5014182;28;20033;-53
2021/11/18 14:28:47;;;;;;;45.83;24.83;;;;;;;;;;5013991;28;20155;-51
2021/11/18 14:31:32;;;;;;;41.22;24.30;;;;;;;;;;5055617;28;20021;-51